Linz, Austria
Current Conditions -  °F | °C
As of 5:50 AM on Friday 28 Nov 2014 (Local Time) from LOWL Reporting Station
Overcast Overcast  
Wind Chill: 29°   Ceiling: 1200
Heat Index: 36°   Visibility: 6mi
Dew Point: 30°   Wind: 9mph
Humidity: 81%   Direction: 90°E
Pressure: 29.91"   Gusts: NA
Location:  48.31°N, 14.29°E
Report Text: LOWL 280350Z 09008KT 9999 OVC012 02/M01 Q1013 NOSIG
Loading
Personal Weather Stations






























Interactive Weather Map New forecast layout! Learn more

10-Day Weather Forecast

Advertisements
Track Severe Weather on mobile